Time;durP1;ratioP1;P1;durP2;ratioP2;P2;SDS_P1;SDS_P2;PMS_P1;PMS_P2;Temp;Humidity;BMP_temperature;BMP_pressure;BME280_temperature;BME280_humidity;BME280_pressure;Samples;Min_cycle;Max_cycle;Signal;HPM_P1;HPM_P2
2021/12/16 00:01:52;;;;;;;3.77;1.53;;;10.90;99.90;;;;;;6114231;23;20203;-84
2021/12/16 00:09:12;;;;;;;1.70;0.83;;;10.90;99.90;;;;;;6158582;23;20255;-84
2021/12/16 00:31:04;;;;;;;2.40;0.63;;;10.90;99.90;;;;;;6166927;23;20282;-84
2021/12/16 00:36:21;;;;;;;1.03;0.90;;;10.90;99.90;;;;;;6102589;23;20199;-85
2021/12/16 00:38:47;;;;;;;5.70;0.93;;;10.90;99.90;;;;;;6145395;23;20202;-84
2021/12/16 00:41:13;;;;;;;2.87;1.43;;;10.90;99.90;;;;;;6147533;23;20266;-85
2021/12/16 00:43:47;;;;;;;1.33;1.13;;;10.90;99.90;;;;;;6147825;23;20538;-85
2021/12/16 00:46:29;;;;;;;1.77;1.47;;;10.90;99.90;;;;;;6169575;23;20186;-84
2021/12/16 00:54:13;;;;;;;1.13;1.03;;;10.90;99.90;;;;;;6166964;23;20199;-83
2021/12/16 00:56:43;;;;;;;1.63;1.10;;;10.80;99.90;;;;;;6145082;23;20261;-85
2021/12/16 00:59:10;;;;;;;4.73;1.40;;;10.80;99.90;;;;;;6147073;23;20654;-84
2021/12/16 01:01:46;;;;;;;2.17;1.20;;;10.80;99.90;;;;;;6121862;23;20159;-85
2021/12/16 01:40:24;;;;;;;1.37;0.90;;;10.80;99.90;;;;;;6148913;23;20542;-86
2021/12/16 01:45:55;;;;;;;1.13;1.13;;;10.80;99.90;;;;;;6147279;23;20214;-85
2021/12/16 01:51:19;;;;;;;4.00;0.93;;;10.80;99.90;;;;;;6146020;23;20199;-84
2021/12/16 01:54:31;;;;;;;6.13;1.10;;;10.80;99.90;;;;;;6168145;23;20658;-86
2021/12/16 01:56:45;;;;;;;3.57;1.00;;;10.80;99.90;;;;;;6146998;23;20646;-85
2021/12/16 01:59:16;;;;;;;3.60;1.57;;;10.80;99.90;;;;;;6168469;23;20273;-84
2021/12/16 02:01:43;;;;;;;13.23;1.97;;;10.80;99.90;;;;;;6143931;23;20254;-85
2021/12/16 02:04:28;;;;;;;1.83;1.40;;;10.70;99.90;;;;;;6145591;23;20202;-84
2021/12/16 02:09:31;;;;;;;5.63;1.53;;;10.70;99.90;;;;;;6143324;23;20211;-84
2021/12/16 02:31:33;;;;;;;5.30;0.50;;;10.40;99.90;;;;;;6166937;23;20203;-82
2021/12/16 02:38:49;;;;;;;1.73;0.57;;;10.30;99.90;;;;;;6168411;23;20203;-82
2021/12/16 02:41:16;;;;;;;2.13;1.10;;;10.30;99.90;;;;;;6144898;23;20202;-85
2021/12/16 02:48:43;;;;;;;3.60;1.80;;;10.20;99.90;;;;;;6145677;23;20540;-83
2021/12/16 02:51:13;;;;;;;0.60;0.60;;;10.20;99.90;;;;;;6144950;23;20662;-85
2021/12/16 02:53:45;;;;;;;1.77;1.43;;;10.20;99.90;;;;;;6146812;23;20244;-85
2021/12/16 02:56:12;;;;;;;3.93;0.73;;;10.10;99.90;;;;;;6146638;23;20204;-83
2021/12/16 02:58:41;;;;;;;1.17;1.10;;;10.10;99.90;;;;;;6171881;23;20207;-84
2021/12/16 03:01:17;;;;;;;3.80;0.97;;;10.00;99.90;;;;;;6146733;23;20242;-83
2021/12/16 03:03:43;;;;;;;1.90;1.53;;;10.00;99.90;;;;;;6146509;23;20199;-85
2021/12/16 03:06:11;;;;;;;2.83;1.43;;;9.90;99.90;;;;;;6172200;23;20246;-82
2021/12/16 03:08:41;;;;;;;2.10;1.47;;;9.90;99.90;;;;;;6145719;23;20214;-85
2021/12/16 03:11:23;;;;;;;3.03;1.07;;;9.90;99.90;;;;;;6145844;23;20239;-85
2021/12/16 03:14:21;;;;;;;7.40;2.30;;;9.80;99.90;;;;;;6146844;23;20151;-85
2021/12/16 03:17:07;;;;;;;0.70;0.70;;;9.80;99.90;;;;;;6148868;23;20156;-84
2021/12/16 03:19:55;;;;;;;0.83;0.70;;;9.80;99.90;;;;;;6176231;23;20194;-83
2021/12/16 03:22:46;;;;;;;2.37;1.10;;;9.70;99.90;;;;;;6147255;23;20207;-84
2021/12/16 03:28:24;;;;;;;2.33;2.17;;;9.70;99.90;;;;;;6146036;23;20207;-84
2021/12/16 03:38:35;;;;;;;0.80;0.80;;;9.70;99.90;;;;;;6147731;23;20270;-83
2021/12/16 03:41:00;;;;;;;2.73;1.80;;;9.70;99.90;;;;;;6146261;23;20156;-82
2021/12/16 03:43:28;;;;;;;2.27;1.03;;;9.70;99.90;;;;;;6146435;23;20620;-86
2021/12/16 03:48:53;;;;;;;0.90;0.80;;;9.80;99.90;;;;;;6146808;23;20215;-82
2021/12/16 03:51:38;;;;;;;1.93;1.00;;;9.80;99.90;;;;;;6147355;23;20206;-83
2021/12/16 03:54:10;;;;;;;2.10;1.00;;;9.80;99.90;;;;;;6171016;23;20694;-83
2021/12/16 03:56:37;;;;;;;3.43;1.17;;;9.80;99.90;;;;;;6157193;23;20233;-83
2021/12/16 03:59:05;;;;;;;2.20;1.57;;;9.80;99.90;;;;;;6172689;23;20380;-85
2021/12/16 04:01:31;;;;;;;6.30;1.70;;;9.80;99.90;;;;;;6147909;23;20156;-84
2021/12/16 04:03:57;;;;;;;1.00;0.97;;;9.80;99.90;;;;;;6170971;23;20199;-83
2021/12/16 04:06:26;;;;;;;3.30;1.33;;;9.80;99.90;;;;;;6146087;23;20203;-83
2021/12/16 04:08:55;;;;;;;4.53;1.83;;;9.80;99.90;;;;;;6158725;23;20289;-85
2021/12/16 04:11:27;;;;;;;1.73;1.47;;;9.80;99.90;;;;;;6175729;23;20195;-84
2021/12/16 04:13:59;;;;;;;2.07;1.00;;;9.80;99.90;;;;;;6175803;23;20147;-83
2021/12/16 04:16:32;;;;;;;4.33;1.33;;;9.80;99.90;;;;;;6146663;23;20188;-85
2021/12/16 04:19:02;;;;;;;3.40;2.50;;;9.80;99.90;;;;;;6147235;23;20286;-84
2021/12/16 04:21:28;;;;;;;3.57;1.20;;;9.70;99.90;;;;;;6147356;23;20306;-84
2021/12/16 04:23:56;;;;;;;1.50;1.27;;;9.80;99.90;;;;;;6146154;23;20195;-84
2021/12/16 04:26:24;;;;;;;2.43;2.23;;;9.70;99.90;;;;;;6147120;23;20638;-84
2021/12/16 04:28:50;;;;;;;5.43;2.10;;;9.70;99.90;;;;;;6145173;23;20193;-84
2021/12/16 04:31:16;;;;;;;1.27;1.27;;;9.70;99.90;;;;;;6171691;23;20159;-84
2021/12/16 04:33:42;;;;;;;2.40;1.37;;;9.60;99.90;;;;;;6145826;23;20655;-84
2021/12/16 04:36:11;;;;;;;4.03;2.57;;;9.70;99.90;;;;;;6147105;23;20195;-85
2021/12/16 04:38:38;;;;;;;2.37;1.27;;;9.60;99.90;;;;;;6146493;23;20296;-84
2021/12/16 04:41:09;;;;;;;2.10;1.33;;;9.60;99.90;;;;;;6145485;23;20167;-84
2021/12/16 04:43:40;;;;;;;1.80;1.00;;;9.60;99.90;;;;;;6148016;23;20172;-85
2021/12/16 04:46:25;;;;;;;1.47;1.30;;;9.60;99.90;;;;;;6145378;23;20222;-84
2021/12/16 04:48:56;;;;;;;0.93;0.90;;;9.50;99.90;;;;;;6146666;23;20673;-84
2021/12/16 04:51:24;;;;;;;2.63;1.30;;;9.50;99.90;;;;;;6145343;23;20222;-83
2021/12/16 04:53:50;;;;;;;1.70;1.43;;;9.40;99.90;;;;;;6170303;23;20191;-84
2021/12/16 04:56:17;;;;;;;2.03;1.73;;;9.40;99.90;;;;;;6151947;23;20233;-84
2021/12/16 04:58:48;;;;;;;2.73;1.90;;;9.40;99.90;;;;;;6175060;23;20231;-84
2021/12/16 05:01:14;;;;;;;2.40;1.20;;;9.50;99.90;;;;;;6145739;23;20623;-85
2021/12/16 05:03:41;;;;;;;2.53;1.73;;;9.40;99.90;;;;;;6145553;23;20187;-84
2021/12/16 05:06:09;;;;;;;2.67;1.97;;;9.40;99.90;;;;;;6134245;23;20219;-84
2021/12/16 05:08:36;;;;;;;3.67;1.83;;;9.40;99.90;;;;;;6146813;23;20245;-83
2021/12/16 05:11:04;;;;;;;2.03;1.07;;;9.40;99.90;;;;;;6145361;23;20210;-84
2021/12/16 05:13:31;;;;;;;9.10;1.80;;;9.40;99.90;;;;;;6146165;23;20242;-83
2021/12/16 05:16:02;;;;;;;2.73;1.70;;;9.40;99.90;;;;;;6145097;23;20192;-83
2021/12/16 05:18:34;;;;;;;1.87;1.43;;;9.30;99.90;;;;;;6167587;23;20190;-83
2021/12/16 05:21:07;;;;;;;1.90;1.10;;;9.20;99.90;;;;;;6174576;23;20573;-84
2021/12/16 05:26:21;;;;;;;1.60;1.50;;;9.20;99.90;;;;;;6176266;23;20198;-84
2021/12/16 05:28:54;;;;;;;2.20;1.13;;;9.10;99.90;;;;;;6175050;23;20186;-85
2021/12/16 05:31:25;;;;;;;1.40;1.30;;;9.10;99.90;;;;;;6146823;23;20209;-83
2021/12/16 05:33:52;;;;;;;5.33;1.13;;;9.10;99.90;;;;;;6144647;23;20199;-84
2021/12/16 05:36:18;;;;;;;1.57;0.97;;;9.00;99.90;;;;;;6145116;23;20294;-84
2021/12/16 05:38:45;;;;;;;1.77;1.40;;;9.00;99.90;;;;;;6144326;23;20195;-85
2021/12/16 05:41:14;;;;;;;2.57;2.30;;;9.00;99.90;;;;;;6167824;23;20282;-84
2021/12/16 05:43:42;;;;;;;3.50;1.50;;;9.00;99.90;;;;;;6144411;23;20598;-84
2021/12/16 05:46:08;;;;;;;1.13;1.13;;;9.00;99.90;;;;;;6146119;23;20203;-85
2021/12/16 05:48:37;;;;;;;5.33;1.57;;;9.10;99.90;;;;;;6145021;23;20211;-84
2021/12/16 05:51:15;;;;;;;1.90;1.43;;;9.10;99.90;;;;;;6146077;23;20686;-84
2021/12/16 05:53:44;;;;;;;1.23;1.03;;;9.10;99.90;;;;;;6142733;23;20274;-84
2021/12/16 05:56:10;;;;;;;6.83;2.40;;;9.20;99.90;;;;;;6167568;23;20211;-83
2021/12/16 05:58:37;;;;;;;2.20;1.93;;;9.20;99.90;;;;;;6143578;23;20661;-84
2021/12/16 06:01:18;;;;;;;4.73;2.33;;;9.20;99.90;;;;;;6143228;23;20206;-83
2021/12/16 06:03:44;;;;;;;2.17;1.83;;;9.20;99.90;;;;;;6143131;23;20222;-84
2021/12/16 06:06:10;;;;;;;9.23;2.20;;;9.20;99.90;;;;;;6167210;23;20195;-84
2021/12/16 06:08:37;;;;;;;9.67;3.53;;;9.20;99.90;;;;;;6132683;23;20541;-83
2021/12/16 06:13:37;;;;;;;5.60;1.93;;;9.30;99.90;;;;;;6169646;23;20652;-84
2021/12/16 06:29:34;;;;;;;2.80;2.17;;;9.50;99.90;;;;;;6148878;23;20203;-83
2021/12/16 06:32:00;;;;;;;3.37;1.77;;;9.50;99.90;;;;;;6147057;23;20599;-84
2021/12/16 06:34:26;;;;;;;1.63;1.53;;;9.50;99.90;;;;;;6149669;23;20235;-85
2021/12/16 06:36:52;;;;;;;2.90;2.37;;;9.50;99.90;;;;;;6147205;23;20202;-84
2021/12/16 06:39:18;;;;;;;3.93;2.97;;;9.50;99.90;;;;;;6145960;23;20614;-84
2021/12/16 06:41:44;;;;;;;2.77;2.33;;;9.50;99.90;;;;;;6145330;23;20187;-84
2021/12/16 06:44:50;;;;;;;20.87;2.77;;;9.50;99.90;;;;;;6147098;23;20242;-84
2021/12/16 06:47:09;;;;;;;2.53;1.93;;;9.50;99.90;;;;;;6142770;23;20167;-83
2021/12/16 06:49:38;;;;;;;3.17;2.87;;;9.30;99.90;;;;;;6147610;23;20172;-83
2021/12/16 06:52:06;;;;;;;2.33;1.90;;;9.30;99.90;;;;;;6146969;23;20199;-85
2021/12/16 06:54:52;;;;;;;4.43;1.97;;;9.20;99.90;;;;;;6147944;23;20627;-83
2021/12/16 06:59:55;;;;;;;3.50;2.07;;;9.20;99.90;;;;;;6169874;23;20683;-84
2021/12/16 07:05:08;;;;;;;3.63;3.23;;;9.30;99.90;;;;;;6146738;23;20630;-84
2021/12/16 07:07:34;;;;;;;2.30;2.10;;;9.30;99.90;;;;;;6147728;23;20163;-82
2021/12/16 07:10:00;;;;;;;8.20;3.63;;;9.20;99.90;;;;;;6145446;23;20245;-82
2021/12/16 07:12:35;;;;;;;2.77;2.50;;;9.20;99.90;;;;;;6145847;23;20203;-83
2021/12/16 07:15:10;;;;;;;5.87;2.63;;;9.20;99.90;;;;;;6168119;23;20274;-83
2021/12/16 07:17:38;;;;;;;2.87;1.40;;;9.20;99.90;;;;;;6145920;23;20209;-83
2021/12/16 07:20:07;;;;;;;6.27;2.13;;;9.20;99.90;;;;;;6145942;23;20258;-82
2021/12/16 07:22:34;;;;;;;2.30;1.43;;;9.20;99.90;;;;;;6146491;23;20183;-84
2021/12/16 07:25:02;;;;;;;6.53;3.23;;;9.20;99.90;;;;;;6149931;23;20225;-89
2021/12/16 07:27:28;;;;;;;10.57;2.20;;;9.20;99.90;;;;;;6169933;23;20266;-86
2021/12/16 07:29:54;;;;;;;19.07;3.13;;;9.20;99.90;;;;;;6176207;23;20196;-88
2021/12/16 07:32:20;;;;;;;4.27;1.60;;;9.40;99.90;;;;;;6176332;23;20194;-89
2021/12/16 07:34:46;;;;;;;5.17;3.17;;;9.40;99.90;;;;;;6176850;23;20585;-88
2021/12/16 07:37:11;;;;;;;2.53;2.33;;;9.40;99.90;;;;;;6200173;23;20195;-89
2021/12/16 07:39:40;;;;;;;8.40;2.30;;;9.50;99.90;;;;;;6202159;23;20198;-89
2021/12/16 07:42:11;;;;;;;2.63;2.03;;;9.50;99.90;;;;;;6175941;23;20216;-88
2021/12/16 07:44:36;;;;;;;7.77;3.23;;;9.40;99.90;;;;;;6175507;23;20751;-89
2021/12/16 07:47:07;;;;;;;5.93;2.53;;;9.50;99.90;;;;;;6173216;23;20158;-89
2021/12/16 07:49:36;;;;;;;3.50;2.20;;;9.50;99.90;;;;;;6147259;23;20164;-90
2021/12/16 07:52:04;;;;;;;4.50;1.43;;;9.50;99.90;;;;;;6145594;23;20274;-90
2021/12/16 07:54:31;;;;;;;2.90;1.80;;;9.60;99.90;;;;;;6147641;23;20229;-92
2021/12/16 07:56:58;;;;;;;4.67;2.50;;;9.60;99.90;;;;;;6098381;23;1144657;-92
2021/12/16 07:59:27;;;;;;;10.53;2.07;;;9.70;99.90;;;;;;6147265;23;20219;-89
2021/12/16 08:01:54;;;;;;;4.53;2.67;;;9.70;99.90;;;;;;6145612;23;20768;-92
2021/12/16 08:04:26;;;;;;;4.77;3.20;;;9.70;99.90;;;;;;6148204;23;20167;-89
2021/12/16 08:06:54;;;;;;;4.70;2.43;;;9.70;99.90;;;;;;6171433;23;20657;-90
2021/12/16 08:09:21;;;;;;;2.33;1.77;;;9.80;99.90;;;;;;6147321;23;20210;-90
2021/12/16 08:11:49;;;;;;;11.40;3.87;;;9.70;99.90;;;;;;6146472;23;20196;-90
2021/12/16 08:14:15;;;;;;;3.13;2.03;;;9.70;99.90;;;;;;6170991;23;20223;-90
2021/12/16 08:16:41;;;;;;;3.20;2.53;;;9.70;99.90;;;;;;6148581;23;20159;-90
2021/12/16 08:19:08;;;;;;;2.27;2.03;;;9.30;99.90;;;;;;6147806;23;20361;-88
2021/12/16 08:21:35;;;;;;;3.03;2.37;;;8.80;99.90;;;;;;6173605;23;20218;-87
2021/12/16 08:24:06;;;;;;;7.33;2.20;;;8.50;99.90;;;;;;6150561;23;20211;-91
2021/12/16 08:26:34;;;;;;;5.50;2.40;;;8.50;99.90;;;;;;6161930;23;20242;-90
2021/12/16 08:29:00;;;;;;;1.60;1.50;;;8.70;99.90;;;;;;6181374;23;20187;-91
2021/12/16 08:31:27;;;;;;;9.90;2.17;;;8.80;99.90;;;;;;6199519;23;20171;-89
2021/12/16 08:33:54;;;;;;;33.70;2.77;;;8.90;99.90;;;;;;6202893;23;20267;-88
2021/12/16 08:36:19;;;;;;;2.87;2.60;;;8.90;99.90;;;;;;6194953;23;20202;-93
2021/12/16 08:38:45;;;;;;;3.67;2.57;;;8.90;99.90;;;;;;6182180;23;20198;-94
2021/12/16 08:41:25;;;;;;;2.67;2.47;;;8.80;99.90;;;;;;6182830;23;20269;-93
2021/12/16 08:43:51;;;;;;;12.13;2.90;;;8.80;99.90;;;;;;6182795;23;20198;-93
2021/12/16 08:46:21;;;;;;;5.83;2.33;;;8.80;99.90;;;;;;6209768;23;20166;-92
2021/12/16 08:48:49;;;;;;;4.57;2.00;;;8.90;99.90;;;;;;6186396;23;20277;-93
2021/12/16 08:51:18;;;;;;;6.20;2.87;;;9.00;99.90;;;;;;6180444;23;20199;-91
2021/12/16 08:53:44;;;;;;;24.23;2.87;;;9.10;99.90;;;;;;6179498;23;20190;-89
2021/12/16 08:56:13;;;;;;;2.47;2.27;;;9.10;99.90;;;;;;6204620;23;20664;-92
2021/12/16 08:58:40;;;;;;;9.03;6.07;;;9.20;99.90;;;;;;6182364;23;20603;-92
2021/12/16 09:01:24;;;;;;;4.20;2.03;;;9.30;99.90;;;;;;6180204;23;20199;-92
2021/12/16 09:03:50;;;;;;;2.13;1.60;;;9.40;99.90;;;;;;6187130;23;20249;-91
2021/12/16 09:06:20;;;;;;;4.07;3.00;;;9.50;99.90;;;;;;6187201;23;20243;-92
2021/12/16 09:08:47;;;;;;;5.37;3.17;;;9.60;99.90;;;;;;6186551;23;20217;-92
2021/12/16 09:11:19;;;;;;;4.80;2.27;;;9.70;99.90;;;;;;6186464;23;20199;-91
2021/12/16 09:13:46;;;;;;;4.53;3.50;;;9.80;99.90;;;;;;6184820;23;20143;-91
2021/12/16 09:16:17;;;;;;;5.03;3.43;;;9.80;99.90;;;;;;6184089;23;20262;-89
2021/12/16 09:18:44;;;;;;;4.17;3.47;;;9.80;99.90;;;;;;6185659;23;20209;-89
2021/12/16 09:21:12;;;;;;;10.07;3.77;;;9.80;99.90;;;;;;6183303;23;20257;-88
2021/12/16 09:23:44;;;;;;;24.83;3.33;;;9.90;99.90;;;;;;6187264;23;20242;-90
2021/12/16 09:26:10;;;;;;;3.00;2.73;;;9.80;99.90;;;;;;6189151;23;20202;-89
2021/12/16 09:28:37;;;;;;;3.30;2.77;;;9.80;99.90;;;;;;6190524;23;20202;-93
2021/12/16 09:31:10;;;;;;;2.80;2.20;;;9.90;99.90;;;;;;6189667;23;20638;-90
2021/12/16 09:33:41;;;;;;;3.13;2.37;;;9.90;99.90;;;;;;6189589;23;20246;-92
2021/12/16 09:36:08;;;;;;;4.70;2.33;;;9.90;99.90;;;;;;6188481;23;20264;-88
2021/12/16 09:38:34;;;;;;;2.70;2.40;;;9.90;99.90;;;;;;6189083;23;20196;-92
2021/12/16 09:41:00;;;;;;;4.77;2.43;;;9.90;99.90;;;;;;6191434;23;20167;-90
2021/12/16 09:43:29;;;;;;;8.63;3.03;;;9.80;99.90;;;;;;6217038;23;20197;-87
2021/12/16 09:45:58;;;;;;;4.13;2.50;;;9.70;99.90;;;;;;6190975;23;20195;-91
2021/12/16 09:48:25;;;;;;;6.90;3.30;;;9.80;99.90;;;;;;6183944;23;20721;-90
2021/12/16 09:50:51;;;;;;;3.10;2.27;;;9.80;99.90;;;;;;6183385;23;20191;-92
2021/12/16 09:53:18;;;;;;;4.47;2.20;;;9.90;99.90;;;;;;6182340;23;20245;-92
2021/12/16 09:55:46;;;;;;;4.60;3.03;;;9.90;99.90;;;;;;6182581;23;20163;-89
2021/12/16 09:58:12;;;;;;;5.80;3.63;;;10.00;99.90;;;;;;6205630;23;20229;-92
2021/12/16 10:00:39;;;;;;;3.20;2.60;;;10.20;99.90;;;;;;6182129;23;20211;-90
2021/12/16 10:03:05;;;;;;;5.60;3.17;;;10.10;99.90;;;;;;6180516;23;20194;-92
2021/12/16 10:05:34;;;;;;;10.67;4.43;;;10.10;99.90;;;;;;6180182;23;20194;-91
2021/12/16 10:08:04;;;;;;;3.40;3.03;;;10.30;99.90;;;;;;6178292;23;20186;-92
2021/12/16 10:10:30;;;;;;;27.17;4.70;;;10.40;99.90;;;;;;6179060;23;20163;-92
2021/12/16 10:13:00;;;;;;;9.73;4.30;;;10.60;99.90;;;;;;6177967;23;20202;-89
2021/12/16 10:18:08;;;;;;;8.63;5.03;;;10.60;99.90;;;;;;6199920;23;20206;-91
2021/12/16 10:20:39;;;;;;;29.17;3.67;;;10.80;99.90;;;;;;6178263;23;20573;-89
2021/12/16 10:23:09;;;;;;;3.23;2.70;;;10.90;99.90;;;;;;6175356;23;20533;-89
2021/12/16 10:25:39;;;;;;;5.77;3.43;;;11.00;99.90;;;;;;6178329;23;20155;-91
2021/12/16 10:28:16;;;;;;;9.33;4.97;;;11.00;99.90;;;;;;6175691;23;20293;-87
2021/12/16 10:31:04;;;;;;;4.97;2.90;;;11.10;99.90;;;;;;6178785;23;20194;-90
2021/12/16 10:33:41;;;;;;;5.50;3.87;;;11.20;99.90;;;;;;6193876;23;20203;-90
2021/12/16 10:36:29;;;;;;;10.87;4.33;;;11.30;99.90;;;;;;6179262;23;20186;-88
2021/12/16 10:39:04;;;;;;;7.50;5.23;;;11.40;99.90;;;;;;6177631;23;20692;-90
2021/12/16 10:41:37;;;;;;;4.97;4.10;;;11.70;99.90;;;;;;6179564;23;20248;-89
2021/12/16 10:44:08;;;;;;;9.87;3.67;;;11.70;99.90;;;;;;6186396;23;20143;-89
2021/12/16 10:46:40;;;;;;;8.90;4.17;;;11.60;99.90;;;;;;6201622;23;20154;-89
2021/12/16 10:49:19;;;;;;;6.50;3.13;;;11.80;99.90;;;;;;6177511;23;20203;-89
2021/12/16 10:51:50;;;;;;;16.33;4.57;;;11.80;99.90;;;;;;6170195;23;20204;-87
2021/12/16 10:54:18;;;;;;;6.47;2.93;;;11.90;99.90;;;;;;6176271;23;20198;-89
2021/12/16 10:56:57;;;;;;;4.90;3.60;;;12.10;99.90;;;;;;6177399;23;20289;-89
2021/12/16 10:59:38;;;;;;;5.20;4.23;;;12.10;99.90;;;;;;6177091;23;20195;-89
2021/12/16 11:02:11;;;;;;;7.23;3.60;;;12.10;99.90;;;;;;6176723;23;20159;-89
2021/12/16 11:05:00;;;;;;;5.20;3.83;;;12.20;99.90;;;;;;6177702;23;20155;-86
2021/12/16 11:07:41;;;;;;;24.30;4.00;;;12.30;99.90;;;;;;6148581;23;20485;-88
2021/12/16 11:10:29;;;;;;;9.17;4.40;;;12.30;99.90;;;;;;6147902;23;20195;-88
2021/12/16 11:13:07;;;;;;;14.00;4.27;;;12.30;99.90;;;;;;6149441;23;20195;-89
2021/12/16 11:15:39;;;;;;;5.93;3.93;;;12.40;99.90;;;;;;6147984;23;20274;-87
2021/12/16 11:18:09;;;;;;;10.23;2.97;;;12.40;99.90;;;;;;6149071;23;20276;-89
2021/12/16 11:21:04;;;;;;;3.80;3.33;;;12.50;99.90;;;;;;6148707;23;20199;-90
2021/12/16 11:23:37;;;;;;;5.07;3.03;;;12.40;99.90;;;;;;6152920;23;20217;-90
2021/12/16 11:26:12;;;;;;;9.80;2.53;;;12.40;99.90;;;;;;6174647;23;20162;-89
2021/12/16 11:28:48;;;;;;;11.67;4.93;;;12.40;99.90;;;;;;6178265;23;20174;-90
2021/12/16 11:31:20;;;;;;;12.20;5.17;;;12.60;99.90;;;;;;6179352;23;20232;-89
2021/12/16 11:33:49;;;;;;;6.87;3.83;;;12.70;99.90;;;;;;6177849;23;20217;-89
2021/12/16 11:36:16;;;;;;;12.37;4.77;;;12.70;99.90;;;;;;6178639;23;20195;-87
2021/12/16 11:38:44;;;;;;;15.13;7.50;;;12.80;99.90;;;;;;6180843;23;20226;-89
2021/12/16 11:41:24;;;;;;;15.87;10.03;;;12.80;99.90;;;;;;6180132;23;20195;-89
2021/12/16 11:43:52;;;;;;;8.87;5.87;;;12.70;99.90;;;;;;6178969;23;20147;-89
2021/12/16 11:46:24;;;;;;;8.00;3.63;;;12.70;99.90;;;;;;6179596;23;20155;-88
2021/12/16 11:48:53;;;;;;;11.10;4.33;;;12.70;99.90;;;;;;6177443;23;20206;-88
2021/12/16 11:51:24;;;;;;;7.20;4.63;;;12.70;99.90;;;;;;6177283;23;20202;-89
2021/12/16 11:53:58;;;;;;;16.40;5.47;;;12.80;99.90;;;;;;6177230;23;20274;-86
2021/12/16 11:56:42;;;;;;;12.23;3.97;;;12.90;99.90;;;;;;6177198;23;20571;-88
2021/12/16 11:59:09;;;;;;;8.23;4.50;;;12.90;99.90;;;;;;6203054;23;20155;-89
2021/12/16 12:01:37;;;;;;;15.67;5.40;;;13.00;99.90;;;;;;6177865;23;20586;-89
2021/12/16 12:04:07;;;;;;;11.20;5.80;;;13.10;99.90;;;;;;6177678;23;20281;-88
2021/12/16 12:06:33;;;;;;;6.00;3.90;;;13.20;99.90;;;;;;6178660;23;20198;-88
2021/12/16 12:09:01;;;;;;;9.70;3.53;;;13.20;99.90;;;;;;6179907;23;20542;-89
2021/12/16 12:11:30;;;;;;;4.33;3.20;;;13.00;99.90;;;;;;6178848;23;20194;-88
2021/12/16 12:14:03;;;;;;;3.27;2.47;;;12.80;99.90;;;;;;6177766;23;20459;-91
2021/12/16 12:16:42;;;;;;;5.37;2.30;;;12.60;99.90;;;;;;6179209;23;20139;-90
2021/12/16 12:19:15;;;;;;;4.83;2.83;;;12.50;99.90;;;;;;6179376;23;20202;-89
2021/12/16 12:21:56;;;;;;;2.50;2.30;;;12.40;99.90;;;;;;6177142;23;20195;-86
2021/12/16 12:24:32;;;;;;;13.80;2.83;;;12.50;99.90;;;;;;6202700;23;20213;-89
2021/12/16 12:27:13;;;;;;;4.73;2.47;;;12.60;99.90;;;;;;6178027;23;20673;-90
2021/12/16 12:29:52;;;;;;;7.67;3.60;;;12.60;99.90;;;;;;6177297;23;20225;-89
2021/12/16 12:32:26;;;;;;;3.47;2.80;;;12.70;99.90;;;;;;6177563;23;20236;-89
2021/12/16 12:35:08;;;;;;;11.70;3.83;;;12.70;99.90;;;;;;6177248;23;20194;-89
2021/12/16 12:37:37;;;;;;;9.37;3.53;;;12.70;99.90;;;;;;6176380;23;20198;-89
2021/12/16 12:40:38;;;;;;;12.47;3.40;;;12.70;99.90;;;;;;6200389;23;20510;-86
2021/12/16 12:43:06;;;;;;;18.10;3.73;;;12.70;99.90;;;;;;6176198;23;20281;-88
2021/12/16 12:45:35;;;;;;;14.50;4.47;;;12.50;99.90;;;;;;6177513;23;20198;-89
2021/12/16 12:48:04;;;;;;;6.57;2.67;;;12.50;99.90;;;;;;6179617;23;20242;-88
2021/12/16 12:50:37;;;;;;;5.83;3.50;;;12.40;99.90;;;;;;6177629;23;20191;-89
2021/12/16 12:53:13;;;;;;;5.77;2.60;;;12.40;99.90;;;;;;6178314;23;20151;-88
2021/12/16 12:55:39;;;;;;;10.17;2.33;;;12.30;99.90;;;;;;6181450;23;20154;-87
2021/12/16 12:58:09;;;;;;;7.93;3.33;;;12.40;99.90;;;;;;6193666;23;20246;-88
2021/12/16 13:00:48;;;;;;;6.00;2.43;;;12.30;99.90;;;;;;6195836;23;20202;-90
2021/12/16 13:03:18;;;;;;;8.03;3.30;;;12.40;99.90;;;;;;6177896;23;20323;-87
2021/12/16 13:05:57;;;;;;;10.63;3.30;;;12.40;99.90;;;;;;6176231;23;20226;-90
2021/12/16 13:08:35;;;;;;;4.20;2.20;;;12.30;99.90;;;;;;6177119;23;20253;-90
2021/12/16 13:11:18;;;;;;;32.57;2.73;;;12.30;99.90;;;;;;6176138;23;20462;-90
2021/12/16 13:14:35;;;;;;;5.23;2.20;;;12.40;99.90;;;;;;6177786;23;20162;-88
2021/12/16 13:28:20;;;;;;;9.33;3.57;;;12.10;99.90;;;;;;6147423;23;20247;-89
2021/12/16 13:31:19;;;;;;;2.30;1.67;;;11.90;99.90;;;;;;6147128;23;20684;-90
2021/12/16 13:33:51;;;;;;;2.47;1.83;;;11.90;99.90;;;;;;6159952;23;20199;-89
2021/12/16 13:36:27;;;;;;;11.80;2.33;;;11.80;99.90;;;;;;6145842;23;20191;-88
2021/12/16 13:38:53;;;;;;;3.60;1.87;;;11.80;99.90;;;;;;6123753;23;20325;-89
2021/12/16 13:41:22;;;;;;;3.37;2.27;;;11.80;99.90;;;;;;6146470;23;20199;-89
2021/12/16 13:43:58;;;;;;;7.53;2.27;;;11.80;99.90;;;;;;6146969;23;20186;-86
2021/12/16 14:03:01;;;;;;;3.60;1.43;;;11.70;99.90;;;;;;6134579;23;20191;-91
2021/12/16 14:05:43;;;;;;;18.03;3.63;;;11.60;99.90;;;;;;6092904;23;20269;-89
2021/12/16 14:08:13;;;;;;;8.07;3.37;;;11.60;99.90;;;;;;6122182;23;20302;-88
2021/12/16 14:10:45;;;;;;;3.47;2.40;;;11.60;99.90;;;;;;6147145;23;20167;-92
2021/12/16 14:36:51;;;;;;;6.60;2.67;;;11.30;99.90;;;;;;6117281;23;20227;-90
2021/12/16 14:41:14;;;;;;;2.63;2.27;;;11.20;99.90;;;;;;6118204;23;20152;-91
2021/12/16 14:43:57;;;;;;;3.83;1.40;;;11.10;99.90;;;;;;6118591;23;20160;-90
2021/12/16 14:46:28;;;;;;;5.20;2.27;;;11.10;99.90;;;;;;6092659;23;20215;-92
2021/12/16 14:48:55;;;;;;;2.33;1.70;;;11.00;99.90;;;;;;6119227;23;20247;-92
2021/12/16 14:51:21;;;;;;;17.13;3.33;;;11.10;99.90;;;;;;6118343;23;20279;-91
2021/12/16 14:53:51;;;;;;;3.63;1.97;;;11.10;99.90;;;;;;6094764;23;20636;-92
2021/12/16 14:56:24;;;;;;;2.10;1.37;;;11.10;99.90;;;;;;6103183;23;20213;-91
2021/12/16 14:59:03;;;;;;;4.43;2.20;;;11.00;99.90;;;;;;6173252;23;20163;-90
2021/12/16 15:01:41;;;;;;;6.80;2.63;;;11.00;99.90;;;;;;6150135;23;20516;-90
2021/12/16 15:04:11;;;;;;;5.53;2.67;;;10.90;99.90;;;;;;6149841;23;20222;-88
2021/12/16 15:06:45;;;;;;;16.83;2.40;;;10.80;99.90;;;;;;6148628;23;20540;-89
2021/12/16 15:09:21;;;;;;;1.40;1.30;;;10.80;99.90;;;;;;6159214;23;20234;-89
2021/12/16 15:12:13;;;;;;;11.97;1.20;;;10.80;99.90;;;;;;6166712;23;21154;-89
2021/12/16 15:37:54;;;;;;;1.87;1.77;;;10.70;99.90;;;;;;6147663;23;20195;-91
2021/12/16 15:40:37;;;;;;;1.40;0.60;;;10.70;99.90;;;;;;6145938;23;20195;-91
2021/12/16 15:43:07;;;;;;;1.67;1.50;;;10.60;99.90;;;;;;6148076;23;20196;-92
2021/12/16 15:45:38;;;;;;;0.90;0.77;;;10.60;99.90;;;;;;6146096;23;20317;-91
2021/12/16 15:48:11;;;;;;;1.40;0.97;;;10.50;99.90;;;;;;6146286;23;20318;-90
2021/12/16 15:50:42;;;;;;;28.03;2.30;;;10.50;99.90;;;;;;6146154;23;20193;-91
2021/12/16 15:53:12;;;;;;;9.90;1.10;;;10.60;99.90;;;;;;6146368;23;20156;-86
2021/12/16 15:55:45;;;;;;;21.30;1.97;;;10.60;99.90;;;;;;6172069;23;20152;-91
2021/12/16 15:58:15;;;;;;;3.03;1.23;;;10.60;99.90;;;;;;6167537;23;20226;-91
2021/12/16 16:00:44;;;;;;;6.60;1.47;;;10.70;99.90;;;;;;6167119;23;20233;-91
2021/12/16 16:03:13;;;;;;;2.67;0.90;;;10.80;99.90;;;;;;6158495;23;20195;-91
2021/12/16 16:05:46;;;;;;;2.90;1.73;;;10.80;99.90;;;;;;6144165;23;20211;-89
2021/12/16 16:08:14;;;;;;;12.93;1.53;;;10.80;99.90;;;;;;6144770;23;20211;-89
2021/12/16 16:10:42;;;;;;;3.07;1.20;;;10.90;99.90;;;;;;6146562;23;20182;-89
2021/12/16 16:13:18;;;;;;;1.90;1.47;;;10.80;99.90;;;;;;6148004;23;20191;-89
2021/12/16 16:15:48;;;;;;;20.30;2.40;;;10.80;99.90;;;;;;6147435;23;20195;-88
2021/12/16 16:19:17;;;;;;;4.80;2.77;;;10.80;99.90;;;;;;6146375;23;20322;-90
2021/12/16 16:21:19;;;;;;;22.73;2.53;;;10.80;99.90;;;;;;6147348;23;20412;-91
2021/12/16 16:23:53;;;;;;;8.00;2.37;;;10.90;99.90;;;;;;6145286;23;20220;-89
2021/12/16 16:26:21;;;;;;;2.07;1.63;;;10.80;99.90;;;;;;6147378;23;20147;-90
2021/12/16 16:28:52;;;;;;;15.93;2.37;;;10.70;99.90;;;;;;6147362;23;20186;-91
2021/12/16 16:31:25;;;;;;;2.10;1.90;;;10.70;99.90;;;;;;6144034;23;20282;-89
2021/12/16 16:33:52;;;;;;;1.33;0.73;;;10.70;99.90;;;;;;6144042;23;20203;-90
2021/12/16 16:36:22;;;;;;;5.03;1.33;;;10.70;99.90;;;;;;6168432;23;20647;-90
2021/12/16 16:39:03;;;;;;;18.57;2.00;;;10.70;99.90;;;;;;6143801;23;20519;-90
2021/12/16 16:41:31;;;;;;;7.87;2.50;;;10.70;99.90;;;;;;6146302;23;20183;-91
2021/12/16 16:44:16;;;;;;;9.20;3.00;;;10.80;99.90;;;;;;6145854;23;20159;-90
2021/12/16 16:46:52;;;;;;;1.03;0.97;;;10.70;99.90;;;;;;6175599;23;20174;-90
2021/12/16 16:49:41;;;;;;;23.77;2.43;;;10.50;99.90;;;;;;6158351;23;20207;-90
2021/12/16 16:52:11;;;;;;;1.97;1.20;;;10.40;99.90;;;;;;6151721;23;20274;-91
2021/12/16 16:54:48;;;;;;;6.03;2.10;;;10.30;99.90;;;;;;6144987;23;20274;-91
2021/12/16 16:57:26;;;;;;;0.73;0.73;;;10.20;99.90;;;;;;6131481;23;20218;-90